Time;durP1;ratioP1;P1;durP2;ratioP2;P2;SDS_P1;SDS_P2;PMS_P1;PMS_P2;Temp;Humidity;BMP_temperature;BMP_pressure;BME280_temperature;BME280_humidity;BME280_pressure;Samples;Min_cycle;Max_cycle;Signal;HPM_P1;HPM_P2
2024/02/09 00:01:14;;;;;;;;;;;0.60;100.00;;;;;;5088003;28;19935;-70
2024/02/09 00:03:41;;;;;;;;;;;0.60;100.00;;;;;;5087541;28;19928;-69
2024/02/09 00:06:08;;;;;;;;;;;0.60;100.00;;;;;;5087691;28;19940;-69
2024/02/09 00:08:36;;;;;;;;;;;0.60;100.00;;;;;;5068226;28;20027;-70
2024/02/09 00:11:07;;;;;;;;;;;0.60;100.00;;;;;;5081322;28;19935;-70
2024/02/09 00:13:34;;;;;;;;;;;0.60;100.00;;;;;;5086142;28;19928;-70
2024/02/09 00:16:04;;;;;;;;;;;0.60;100.00;;;;;;5087179;28;20015;-70
2024/02/09 00:18:31;;;;;;;;;;;0.60;100.00;;;;;;5087204;28;19939;-70
2024/02/09 00:20:58;;;;;;;;;;;0.60;100.00;;;;;;5068829;28;19932;-70
2024/02/09 00:23:25;;;;;;;;;;;0.60;100.00;;;;;;5087082;28;19935;-70
2024/02/09 00:25:52;;;;;;;;;;;0.70;100.00;;;;;;5068507;28;20380;-70
2024/02/09 00:28:19;;;;;;;;;;;0.70;100.00;;;;;;5086883;28;19939;-70
2024/02/09 00:30:45;;;;;;;;;;;0.70;100.00;;;;;;5085440;28;19945;-70
2024/02/09 00:33:12;;;;;;;;;;;0.70;100.00;;;;;;5086356;28;19934;-69
2024/02/09 00:35:39;;;;;;;;;;;0.70;100.00;;;;;;5086791;28;19928;-69
2024/02/09 00:38:07;;;;;;;;;;;0.70;100.00;;;;;;5101352;28;19971;-70
2024/02/09 00:40:34;;;;;;;;;;;0.70;100.00;;;;;;5086862;28;19928;-70
2024/02/09 00:43:01;;;;;;;;;;;0.70;100.00;;;;;;5086482;28;19935;-70
2024/02/09 00:45:34;;;;;;;;;;;0.70;100.00;;;;;;5066724;28;19934;-70
2024/02/09 00:48:02;;;;;;;;;;;0.70;100.00;;;;;;5079863;28;19928;-70
2024/02/09 00:50:32;;;;;;;;;;;0.60;100.00;;;;;;5084178;28;19935;-70
2024/02/09 00:53:04;;;;;;;;;;;0.60;100.00;;;;;;5088167;28;19939;-70
2024/02/09 00:55:32;;;;;;;;;;;0.60;100.00;;;;;;5068121;28;19928;-69
2024/02/09 00:57:59;;;;;;;;;;;0.60;100.00;;;;;;5101408;28;19938;-70
2024/02/09 01:00:30;;;;;;;;;;;0.60;100.00;;;;;;5086795;28;19975;-69
2024/02/09 01:02:58;;;;;;;;;;;0.60;100.00;;;;;;5069068;28;19928;-70
2024/02/09 01:05:24;;;;;;;;;;;0.60;100.00;;;;;;5087201;28;19928;-69
2024/02/09 01:07:51;;;;;;;;;;;0.60;100.00;;;;;;5085896;28;19928;-70
2024/02/09 01:10:18;;;;;;;;;;;0.60;100.00;;;;;;5086772;28;19990;-70
2024/02/09 02:46:23;;;;;;;;;;;0.60;100.00;;;;;;5088656;28;19927;-70
2024/02/09 03:05:30;;;;;;;;;;;0.60;100.00;;;;;;5093808;28;19928;-70
2024/02/09 03:07:57;;;;;;;;;;;0.60;100.00;;;;;;5088551;28;19928;-69
2024/02/09 03:10:27;;;;;;;;;;;0.60;100.00;;;;;;5088664;28;19928;-70
2024/02/09 03:12:54;;;;;;;;;;;0.60;100.00;;;;;;5088382;28;19927;-70
2024/02/09 03:15:23;;;;;;;;;;;0.60;100.00;;;;;;5083343;28;19936;-70
2024/02/09 03:17:53;;;;;;;;;;;0.70;100.00;;;;;;5070259;28;20463;-70
2024/02/09 03:20:24;;;;;;;;;;;0.70;100.00;;;;;;5088041;28;20710;-70
2024/02/09 03:22:51;;;;;;;;;;;0.70;100.00;;;;;;5087714;28;19967;-69
2024/02/09 03:25:18;;;;;;;;;;;0.70;100.00;;;;;;5088509;28;19924;-70
2024/02/09 03:27:45;;;;;;;;;;;0.70;100.00;;;;;;5088668;28;19928;-69
2024/02/09 03:30:12;;;;;;;;;;;0.70;100.00;;;;;;5087513;28;19973;-69
2024/02/09 03:32:44;;;;;;;;;;;0.70;100.00;;;;;;5088243;28;20373;-70
2024/02/09 03:35:12;;;;;;;;;;;0.70;100.00;;;;;;5070056;28;19959;-70
2024/02/09 03:37:42;;;;;;;;;;;0.70;100.00;;;;;;5069690;28;20391;-70
2024/02/09 03:40:10;;;;;;;;;;;0.70;100.00;;;;;;5069962;28;20481;-69
2024/02/09 03:42:37;;;;;;;;;;;0.70;100.00;;;;;;5088087;28;19944;-69
2024/02/09 03:45:06;;;;;;;;;;;0.70;100.00;;;;;;5076554;28;19928;-69
2024/02/09 03:47:33;;;;;;;;;;;0.70;100.00;;;;;;5069046;28;19931;-69
2024/02/09 03:50:00;;;;;;;;;;;0.70;100.00;;;;;;5087927;28;19943;-69
2024/02/09 03:52:27;;;;;;;;;;;0.70;100.00;;;;;;5088766;28;19934;-69
2024/02/09 03:54:55;;;;;;;;;;;0.70;100.00;;;;;;5082449;28;19928;-69
2024/02/09 03:57:23;;;;;;;;;;;0.80;100.00;;;;;;5087576;28;20443;-69
2024/02/09 03:59:50;;;;;;;;;;;0.70;100.00;;;;;;5103145;28;19968;-69
2024/02/09 04:02:17;;;;;;;;;;;0.70;100.00;;;;;;5080466;28;19928;-69
2024/02/09 04:04:47;;;;;;;;;;;0.80;100.00;;;;;;5087524;28;19928;-69
2024/02/09 04:07:15;;;;;;;;;;;0.80;100.00;;;;;;5087672;28;19934;-69
2024/02/09 04:09:42;;;;;;;;;;;0.80;100.00;;;;;;5087594;28;19960;-69
2024/02/09 04:12:30;;;;;;;;;;;0.80;100.00;;;;;;5072293;28;19928;-69
2024/02/09 04:14:56;;;;;;;;;;;0.80;100.00;;;;;;5086962;28;19928;-69
2024/02/09 04:17:27;;;;;;;;;;;0.90;100.00;;;;;;5086873;28;20675;-69
2024/02/09 04:19:54;;;;;;;;;;;0.80;100.00;;;;;;5086925;28;19935;-69
2024/02/09 04:22:21;;;;;;;;;;;0.80;100.00;;;;;;5068305;28;19989;-69
2024/02/09 04:24:50;;;;;;;;;;;0.80;100.00;;;;;;5087553;28;19955;-69
2024/02/09 04:27:17;;;;;;;;;;;0.90;100.00;;;;;;5069016;28;19928;-69
2024/02/09 04:29:44;;;;;;;;;;;0.90;100.00;;;;;;5087159;28;19935;-69
2024/02/09 04:32:10;;;;;;;;;;;0.90;100.00;;;;;;5087337;28;19928;-69
2024/02/09 04:34:37;;;;;;;;;;;0.90;100.00;;;;;;5086373;28;19935;-70
2024/02/09 04:37:04;;;;;;;;;;;0.90;100.00;;;;;;5086303;28;20379;-69
2024/02/09 04:39:31;;;;;;;;;;;0.90;100.00;;;;;;5068677;28;20010;-69
2024/02/09 04:41:58;;;;;;;;;;;0.90;100.00;;;;;;5086897;28;19924;-70
2024/02/09 04:44:25;;;;;;;;;;;0.90;100.00;;;;;;5087026;28;19934;-70
2024/02/09 04:46:52;;;;;;;;;;;0.90;100.00;;;;;;5087276;28;19947;-68
2024/02/09 04:49:20;;;;;;;;;;;0.90;100.00;;;;;;5086250;28;19928;-69
2024/02/09 04:51:47;;;;;;;;;;;0.90;100.00;;;;;;5085972;28;19938;-69
2024/02/09 04:54:14;;;;;;;;;;;0.90;100.00;;;;;;5088029;28;19928;-68
2024/02/09 04:56:41;;;;;;;;;;;0.90;100.00;;;;;;5086020;28;20012;-68
2024/02/09 04:59:09;;;;;;;;;;;1.00;100.00;;;;;;5086441;28;19935;-68
2024/02/09 05:01:39;;;;;;;;;;;1.00;100.00;;;;;;5062754;28;19989;-69
2024/02/09 05:04:07;;;;;;;;;;;1.00;100.00;;;;;;5068697;28;20014;-68
2024/02/09 05:06:34;;;;;;;;;;;1.00;100.00;;;;;;5085729;28;20376;-68
2024/02/09 05:09:03;;;;;;;;;;;1.00;100.00;;;;;;5086307;28;19928;-68
2024/02/09 05:11:30;;;;;;;;;;;1.00;100.00;;;;;;5086981;28;19935;-68
2024/02/09 05:13:57;;;;;;;;;;;1.00;100.00;;;;;;5087086;28;20427;-68
2024/02/09 05:16:24;;;;;;;;;;;1.00;100.00;;;;;;5068225;28;19932;-68
2024/02/09 05:18:51;;;;;;;;;;;1.00;100.00;;;;;;5068337;28;20007;-69
2024/02/09 05:21:17;;;;;;;;;;;1.00;100.00;;;;;;5067842;28;20045;-68
2024/02/09 05:23:44;;;;;;;;;;;1.00;100.00;;;;;;5085995;28;19928;-68
2024/02/09 05:26:11;;;;;;;;;;;1.00;100.00;;;;;;5086231;28;19982;-69
2024/02/09 05:28:39;;;;;;;;;;;1.00;100.00;;;;;;5086127;28;20001;-69
2024/02/09 05:31:13;;;;;;;;;;;1.00;100.00;;;;;;5086423;28;19927;-68
2024/02/09 05:33:40;;;;;;;;;;;0.90;100.00;;;;;;5087966;28;20609;-68
2024/02/09 05:36:07;;;;;;;;;;;0.90;100.00;;;;;;5089460;28;20363;-68
2024/02/09 05:38:35;;;;;;;;;;;0.90;100.00;;;;;;5087210;28;20700;-68
2024/02/09 05:41:03;;;;;;;;;;;0.80;100.00;;;;;;5090296;28;19995;-68
2024/02/09 05:43:30;;;;;;;;;;;0.80;100.00;;;;;;5072279;28;19932;-68
2024/02/09 05:45:56;;;;;;;;;;;0.80;100.00;;;;;;5090294;28;20490;-68
2024/02/09 05:48:23;;;;;;;;;;;0.70;100.00;;;;;;5089437;28;19928;-68
2024/02/09 05:50:50;;;;;;;;;;;0.70;100.00;;;;;;5076845;28;19955;-68
2024/02/09 05:53:17;;;;;;;;;;;0.70;100.00;;;;;;5080027;28;20634;-68
2024/02/09 05:55:47;;;;;;;;;;;0.60;100.00;;;;;;5095471;28;19928;-68
2024/02/09 05:58:14;;;;;;;;;;;0.60;100.00;;;;;;5090128;28;19964;-68
2024/02/09 06:00:41;;;;;;;;;;;0.60;100.00;;;;;;5089865;28;20031;-68
2024/02/09 06:03:08;;;;;;;;;;;0.50;100.00;;;;;;5089956;28;20015;-67
2024/02/09 06:05:40;;;;;;;;;;;0.50;100.00;;;;;;5089970;28;19985;-68
2024/02/09 06:08:08;;;;;;;;;;;0.40;100.00;;;;;;5088574;28;19927;-68
2024/02/09 06:10:35;;;;;;;;;;;0.40;100.00;;;;;;5088947;28;19935;-67
2024/02/09 06:13:02;;;;;;;;;;;0.40;100.00;;;;;;5089865;28;19939;-67
2024/02/09 06:15:29;;;;;;;;;;;0.30;100.00;;;;;;5089140;28;19936;-67
2024/02/09 06:18:02;;;;;;;;;;;0.30;100.00;;;;;;5090005;28;19955;-67
2024/02/09 06:20:30;;;;;;;;;;;0.30;100.00;;;;;;5089745;28;19928;-67
2024/02/09 06:22:57;;;;;;;;;;;0.30;100.00;;;;;;5070659;28;19928;-67
2024/02/09 06:25:27;;;;;;;;;;;0.20;100.00;;;;;;5088998;28;19991;-68
2024/02/09 06:27:55;;;;;;;;;;;0.20;100.00;;;;;;5089272;28;20341;-67
2024/02/09 06:30:22;;;;;;;;;;;0.20;100.00;;;;;;5088946;28;19928;-67
2024/02/09 06:32:49;;;;;;;;;;;0.10;100.00;;;;;;5081982;28;19928;-67
2024/02/09 06:35:15;;;;;;;;;;;0.20;100.00;;;;;;5076310;28;19928;-67
2024/02/09 06:37:42;;;;;;;;;;;0.10;100.00;;;;;;5089179;28;19934;-67
2024/02/09 06:40:13;;;;;;;;;;;0.10;100.00;;;;;;5087494;28;19932;-67
2024/02/09 06:42:43;;;;;;;;;;;0.10;100.00;;;;;;5088742;28;19934;-67
2024/02/09 06:45:14;;;;;;;;;;;0.10;100.00;;;;;;5088215;28;19928;-67
2024/02/09 06:47:41;;;;;;;;;;;0.10;100.00;;;;;;5087711;28;19928;-67
2024/02/09 06:50:10;;;;;;;;;;;0.00;100.00;;;;;;5088886;28;19935;-67
2024/02/09 06:52:40;;;;;;;;;;;0.00;100.00;;;;;;5071915;28;20014;-67
2024/02/09 06:55:08;;;;;;;;;;;0.00;100.00;;;;;;5088850;28;20305;-67
2024/02/09 06:57:35;;;;;;;;;;;0.00;100.00;;;;;;5088123;28;19963;-67
2024/02/09 07:00:08;;;;;;;;;;;0.00;100.00;;;;;;5088744;28;19928;-67
2024/02/09 07:02:36;;;;;;;;;;;0.00;100.00;;;;;;5089237;28;19938;-67
2024/02/09 07:05:07;;;;;;;;;;;0.00;100.00;;;;;;5087845;28;19959;-67
2024/02/09 07:07:38;;;;;;;;;;;0.00;100.00;;;;;;5069476;28;19998;-66
2024/02/09 07:10:05;;;;;;;;;;;0.00;100.00;;;;;;5088774;28;19935;-67
2024/02/09 07:12:32;;;;;;;;;;;0.00;100.00;;;;;;5088658;28;19928;-67
2024/02/09 07:15:00;;;;;;;;;;;0.00;100.00;;;;;;5087600;28;19935;-67
2024/02/09 07:17:27;;;;;;;;;;;0.00;100.00;;;;;;5088379;28;20356;-67
2024/02/09 07:19:54;;;;;;;;;;;0.00;100.00;;;;;;5069978;28;20354;-67
2024/02/09 07:22:21;;;;;;;;;;;0.00;100.00;;;;;;5088593;28;19928;-67
2024/02/09 07:24:47;;;;;;;;;;;0.00;100.00;;;;;;5087700;28;19939;-67
2024/02/09 07:27:15;;;;;;;;;;;0.00;100.00;;;;;;5088382;28;19924;-67
2024/02/09 07:29:45;;;;;;;;;;;0.00;100.00;;;;;;5087784;28;20001;-68
2024/02/09 07:32:12;;;;;;;;;;;0.00;100.00;;;;;;5087567;28;19932;-67
2024/02/09 07:34:39;;;;;;;;;;;0.00;100.00;;;;;;5088003;28;19931;-67
2024/02/09 07:37:06;;;;;;;;;;;0.00;100.00;;;;;;5102950;28;19928;-68
2024/02/09 07:39:33;;;;;;;;;;;0.00;100.00;;;;;;5069364;28;19970;-67
2024/02/09 07:42:01;;;;;;;;;;;0.00;100.00;;;;;;5069529;28;19928;-68
2024/02/09 07:44:30;;;;;;;;;;;0.00;100.00;;;;;;5087863;28;19935;-67
2024/02/09 07:46:57;;;;;;;;;;;-0.10;100.00;;;;;;5069555;28;19935;-67
2024/02/09 07:49:26;;;;;;;;;;;-0.10;100.00;;;;;;5087204;28;20514;-67
2024/02/09 07:51:53;;;;;;;;;;;-0.10;100.00;;;;;;5087303;28;19932;-67
2024/02/09 07:54:21;;;;;;;;;;;-0.10;100.00;;;;;;5101601;28;20052;-67
2024/02/09 07:56:48;;;;;;;;;;;-0.10;100.00;;;;;;5087119;28;20013;-67
2024/02/09 07:59:15;;;;;;;;;;;-0.10;100.00;;;;;;5068776;28;19935;-67
2024/02/09 08:01:42;;;;;;;;;;;-0.10;100.00;;;;;;5085995;28;19974;-67
2024/02/09 08:04:09;;;;;;;;;;;-0.10;100.00;;;;;;5086199;28;19958;-67
2024/02/09 08:06:38;;;;;;;;;;;-0.10;100.00;;;;;;5072772;28;19940;-67
2024/02/09 08:09:05;;;;;;;;;;;-0.10;100.00;;;;;;5087294;28;19935;-67
2024/02/09 08:11:32;;;;;;;;;;;-0.10;100.00;;;;;;5087408;28;20319;-67
2024/02/09 08:14:01;;;;;;;;;;;-0.10;100.00;;;;;;5087218;28;19928;-67
2024/02/09 08:16:27;;;;;;;;;;;-0.10;100.00;;;;;;5087079;28;19928;-67
2024/02/09 08:18:54;;;;;;;;;;;-0.10;100.00;;;;;;5067447;28;20304;-67
2024/02/09 08:21:22;;;;;;;;;;;-0.10;100.00;;;;;;5087567;28;19990;-68
2024/02/09 08:23:49;;;;;;;;;;;-0.10;100.00;;;;;;5087110;28;20445;-68
2024/02/09 08:26:16;;;;;;;;;;;-0.10;100.00;;;;;;5087252;28;19967;-68
2024/02/09 08:28:47;;;;;;;;;;;-0.10;100.00;;;;;;5086939;28;19944;-68
2024/02/09 08:31:16;;;;;;;;;;;-0.10;100.00;;;;;;5069098;28;20552;-68
2024/02/09 08:33:43;;;;;;;;;;;-0.10;100.00;;;;;;5086250;28;19928;-68
2024/02/09 08:36:11;;;;;;;;;;;-0.10;100.00;;;;;;5067985;28;19928;-68
2024/02/09 08:38:38;;;;;;;;;;;-0.10;100.00;;;;;;5087306;28;20005;-67
2024/02/09 08:41:07;;;;;;;;;;;0.00;100.00;;;;;;5087281;28;19928;-67
2024/02/09 08:43:34;;;;;;;;;;;0.00;100.00;;;;;;5068498;28;20018;-69
2024/02/09 08:46:02;;;;;;;;;;;0.00;100.00;;;;;;5086051;28;20370;-67
2024/02/09 08:48:29;;;;;;;;;;;0.00;100.00;;;;;;5087224;28;19956;-68
2024/02/09 08:50:56;;;;;;;;;;;0.00;100.00;;;;;;5086795;28;19927;-67
2024/02/09 08:53:23;;;;;;;;;;;0.00;100.00;;;;;;5110829;27;19924;-67
2024/02/09 08:55:50;;;;;;;;;;;0.00;100.00;;;;;;5090397;28;19934;-67
2024/02/09 08:58:20;;;;;;;;;;;0.00;100.00;;;;;;5085100;28;19935;-67
2024/02/09 09:00:47;;;;;;;;;;;0.00;100.00;;;;;;5086073;28;20482;-67
2024/02/09 09:03:30;;;;;;;;;;;0.00;100.00;;;;;;5086179;28;19935;-67
2024/02/09 09:05:57;;;;;;;;;;;0.00;100.00;;;;;;5086812;28;19924;-67
2024/02/09 09:08:24;;;;;;;;;;;0.00;100.00;;;;;;5087647;28;19928;-67
2024/02/09 09:10:51;;;;;;;;;;;0.00;100.00;;;;;;5092567;28;19932;-67
2024/02/09 09:13:19;;;;;;;;;;;0.00;100.00;;;;;;5108415;27;19928;-67
2024/02/09 09:15:46;;;;;;;;;;;0.00;100.00;;;;;;5090359;28;19987;-67
2024/02/09 09:18:13;;;;;;;;;;;0.00;100.00;;;;;;5105917;28;19932;-67
2024/02/09 09:20:39;;;;;;;;;;;0.00;100.00;;;;;;5076322;28;20418;-66
2024/02/09 09:23:06;;;;;;;;;;;0.00;100.00;;;;;;5090380;28;20325;-67
2024/02/09 09:25:33;;;;;;;;;;;0.00;100.00;;;;;;5077291;28;19928;-66
2024/02/09 09:28:00;;;;;;;;;;;0.00;100.00;;;;;;5090709;28;20372;-67
2024/02/09 09:30:29;;;;;;;;;;;0.00;100.00;;;;;;5089775;28;20018;-66
2024/02/09 09:32:57;;;;;;;;;;;0.00;100.00;;;;;;5090650;28;20035;-66
2024/02/09 09:35:24;;;;;;;;;;;0.10;100.00;;;;;;5090759;28;19928;-67
2024/02/09 09:37:51;;;;;;;;;;;0.10;100.00;;;;;;5070048;28;20336;-66
2024/02/09 09:40:18;;;;;;;;;;;0.10;100.00;;;;;;5090656;28;20265;-67
2024/02/09 09:42:45;;;;;;;;;;;0.10;100.00;;;;;;5090669;28;20019;-66
2024/02/09 09:45:12;;;;;;;;;;;0.10;100.00;;;;;;5089775;28;20303;-67
2024/02/09 09:47:40;;;;;;;;;;;0.10;100.00;;;;;;5116484;27;19935;-66
2024/02/09 09:50:11;;;;;;;;;;;0.10;100.00;;;;;;5088967;28;19928;-66
2024/02/09 09:52:43;;;;;;;;;;;0.10;100.00;;;;;;5090097;28;20038;-66
2024/02/09 09:55:11;;;;;;;;;;;0.10;100.00;;;;;;5089858;28;20026;-66
2024/02/09 09:57:38;;;;;;;;;;;0.10;100.00;;;;;;5090367;28;20043;-66
2024/02/09 10:00:07;;;;;;;;;;;0.10;100.00;;;;;;5090443;28;20357;-66
2024/02/09 10:02:34;;;;;;;;;;;0.10;100.00;;;;;;5072239;28;19924;-67
2024/02/09 10:05:01;;;;;;;;;;;0.10;100.00;;;;;;5089656;28;20739;-66
2024/02/09 10:07:29;;;;;;;;;;;0.10;100.00;;;;;;5069936;28;19928;-67
2024/02/09 10:09:56;;;;;;;;;;;0.10;100.00;;;;;;5089569;28;19928;-67
2024/02/09 10:12:24;;;;;;;;;;;0.10;100.00;;;;;;5089731;28;19949;-67
2024/02/09 10:14:52;;;;;;;;;;;0.10;100.00;;;;;;5089056;28;19928;-67
2024/02/09 10:17:21;;;;;;;;;;;0.20;100.00;;;;;;5086895;28;20742;-67
2024/02/09 10:19:48;;;;;;;;;;;0.10;100.00;;;;;;5077258;28;20276;-67
2024/02/09 10:22:17;;;;;;;;;;;0.20;100.00;;;;;;5088943;28;19938;-67
2024/02/09 10:24:52;;;;;;;;;;;0.20;100.00;;;;;;5089306;28;20463;-67
2024/02/09 10:27:19;;;;;;;;;;;0.20;100.00;;;;;;5070772;28;19999;-67
2024/02/09 10:29:46;;;;;;;;;;;0.20;100.00;;;;;;5104792;28;19935;-67
2024/02/09 10:32:13;;;;;;;;;;;0.20;100.00;;;;;;5089250;28;19928;-67
2024/02/09 10:34:40;;;;;;;;;;;0.20;100.00;;;;;;5089204;28;19928;-67
2024/02/09 10:37:07;;;;;;;;;;;0.20;100.00;;;;;;5088439;28;19928;-67
2024/02/09 10:39:47;;;;;;;;;;;0.20;100.00;;;;;;5088987;28;19928;-67
2024/02/09 10:42:16;;;;;;;;;;;0.20;100.00;;;;;;5089159;28;19932;-68
2024/02/09 10:44:46;;;;;;;;;;;0.10;100.00;;;;;;5088215;28;19928;-68
2024/02/09 10:47:14;;;;;;;;;;;0.20;100.00;;;;;;5089030;28;19924;-68
2024/02/09 10:49:43;;;;;;;;;;;0.20;100.00;;;;;;5088365;28;19927;-68
2024/02/09 10:52:11;;;;;;;;;;;0.20;100.00;;;;;;5069823;28;19934;-68
2024/02/09 10:54:59;;;;;;;;;;;0.30;100.00;;;;;;5088553;28;19928;-68
2024/02/09 10:57:26;;;;;;;;;;;0.30;100.00;;;;;;5088118;28;19928;-68
2024/02/09 10:59:53;;;;;;;;;;;0.40;100.00;;;;;;5070344;28;19932;-68
2024/02/09 11:02:22;;;;;;;;;;;0.40;100.00;;;;;;5088337;28;19932;-68
2024/02/09 11:04:49;;;;;;;;;;;0.40;100.00;;;;;;5088164;28;19932;-68
2024/02/09 11:07:16;;;;;;;;;;;0.40;100.00;;;;;;5088138;28;19955;-68
2024/02/09 11:09:46;;;;;;;;;;;0.40;100.00;;;;;;5069785;28;19932;-68
2024/02/09 11:12:13;;;;;;;;;;;0.40;100.00;;;;;;5088240;28;19928;-68
2024/02/09 11:14:44;;;;;;;;;;;0.40;100.00;;;;;;5087774;28;19928;-68
2024/02/09 11:17:15;;;;;;;;;;;0.50;100.00;;;;;;5088182;28;19951;-68
2024/02/09 11:19:42;;;;;;;;;;;0.50;100.00;;;;;;5088545;28;19928;-68
2024/02/09 11:22:09;;;;;;;;;;;0.50;100.00;;;;;;5087611;28;19928;-68
2024/02/09 11:24:37;;;;;;;;;;;0.60;100.00;;;;;;5087952;28;19928;-68
2024/02/09 11:27:04;;;;;;;;;;;0.60;100.00;;;;;;5103289;28;19955;-69
2024/02/09 11:29:32;;;;;;;;;;;0.60;100.00;;;;;;5088723;28;19929;-69
2024/02/09 11:32:02;;;;;;;;;;;0.60;100.00;;;;;;5086347;28;19959;-70
2024/02/09 11:34:30;;;;;;;;;;;0.50;100.00;;;;;;5087677;28;19985;-70
2024/02/09 11:37:00;;;;;;;;;;;0.50;100.00;;;;;;5096266;27;19932;-69
2024/02/09 11:39:28;;;;;;;;;;;0.50;100.00;;;;;;5074818;28;20576;-70
2024/02/09 11:41:55;;;;;;;;;;;0.40;100.00;;;;;;5087912;28;19932;-70
2024/02/09 11:44:22;;;;;;;;;;;0.50;100.00;;;;;;5068873;28;19935;-69
2024/02/09 11:46:53;;;;;;;;;;;0.40;100.00;;;;;;5087895;28;20420;-70
2024/02/09 11:49:20;;;;;;;;;;;0.50;100.00;;;;;;5088145;28;19938;-70
2024/02/09 11:51:48;;;;;;;;;;;0.40;100.00;;;;;;5087787;28;19932;-70
2024/02/09 11:54:21;;;;;;;;;;;0.40;100.00;;;;;;5073568;28;19927;-70
2024/02/09 11:56:48;;;;;;;;;;;0.40;100.00;;;;;;5097065;28;19932;-70
2024/02/09 11:59:15;;;;;;;;;;;0.40;100.00;;;;;;5086232;28;19939;-70
2024/02/09 12:01:42;;;;;;;;;;;0.40;100.00;;;;;;5086942;28;19935;-70
2024/02/09 12:04:10;;;;;;;;;;;0.40;100.00;;;;;;5068996;28;19945;-70
2024/02/09 12:06:37;;;;;;;;;;;0.40;100.00;;;;;;5069748;28;19928;-70
2024/02/09 12:09:04;;;;;;;;;;;0.40;100.00;;;;;;5086897;28;19928;-70
2024/02/09 12:11:31;;;;;;;;;;;0.40;100.00;;;;;;5087324;28;19928;-70
2024/02/09 12:13:58;;;;;;;;;;;0.40;100.00;;;;;;5086669;28;20360;-70
2024/02/09 12:16:25;;;;;;;;;;;0.50;100.00;;;;;;5086243;28;19940;-70
2024/02/09 12:18:52;;;;;;;;;;;0.50;100.00;;;;;;5085931;28;20515;-70
2024/02/09 12:21:19;;;;;;;;;;;0.50;100.00;;;;;;5106451;27;20398;-70
2024/02/09 12:23:46;;;;;;;;;;;0.50;100.00;;;;;;5104150;27;20385;-71
2024/02/09 12:26:14;;;;;;;;;;;0.50;100.00;;;;;;5077246;28;19935;-71
2024/02/09 12:28:41;;;;;;;;;;;0.50;100.00;;;;;;5086873;28;19928;-71
2024/02/09 12:31:08;;;;;;;;;;;0.50;100.00;;;;;;5087412;28;20034;-71
2024/02/09 12:33:44;;;;;;;;;;;0.50;100.00;;;;;;5086731;28;20036;-71
2024/02/09 12:36:20;;;;;;;;;;;0.40;100.00;;;;;;5086549;28;19973;-71
2024/02/09 12:38:58;;;;;;;;;;;0.40;100.00;;;;;;5068675;28;20009;-71
2024/02/09 12:41:25;;;;;;;;;;;0.40;100.00;;;;;;5086629;28;19932;-71
2024/02/09 12:43:56;;;;;;;;;;;0.40;100.00;;;;;;5086807;28;19987;-72
2024/02/09 12:46:29;;;;;;;;;;;0.40;100.00;;;;;;5069410;28;20036;-71
2024/02/09 12:48:56;;;;;;;;;;;0.40;100.00;;;;;;5086258;28;19939;-71
2024/02/09 12:51:23;;;;;;;;;;;0.50;100.00;;;;;;5067624;28;19928;-72
2024/02/09 12:53:52;;;;;;;;;;;0.40;100.00;;;;;;5069252;28;20423;-72
2024/02/09 12:56:19;;;;;;;;;;;0.40;100.00;;;;;;5087174;28;19936;-72
2024/02/09 12:58:47;;;;;;;;;;;0.50;100.00;;;;;;5086054;28;19928;-72
2024/02/09 13:01:14;;;;;;;;;;;0.50;100.00;;;;;;5086756;28;19955;-72
2024/02/09 13:03:43;;;;;;;;;;;0.50;100.00;;;;;;5086332;28;19928;-72
2024/02/09 13:06:13;;;;;;;;;;;0.50;100.00;;;;;;5086720;28;19935;-73
2024/02/09 13:08:41;;;;;;;;;;;0.50;100.00;;;;;;5086903;28;19928;-73
2024/02/09 13:11:08;;;;;;;;;;;0.50;100.00;;;;;;5086955;28;19935;-73
2024/02/09 13:13:37;;;;;;;;;;;0.50;100.00;;;;;;5087310;28;19939;-74
2024/02/09 13:16:08;;;;;;;;;;;0.50;100.00;;;;;;5087197;28;20019;-74
2024/02/09 13:18:35;;;;;;;;;;;0.50;100.00;;;;;;5086138;28;19932;-74
2024/02/09 13:21:02;;;;;;;;;;;0.50;100.00;;;;;;5103403;28;19935;-74
2024/02/09 13:23:29;;;;;;;;;;;0.50;100.00;;;;;;5087439;28;19929;-74
2024/02/09 13:25:58;;;;;;;;;;;0.50;100.00;;;;;;5069704;28;19928;-74
2024/02/09 13:28:29;;;;;;;;;;;0.50;100.00;;;;;;5084054;28;19943;-75
2024/02/09 13:30:58;;;;;;;;;;;0.50;100.00;;;;;;5071743;28;19931;-74
2024/02/09 13:33:25;;;;;;;;;;;0.50;100.00;;;;;;5090394;28;20015;-75
2024/02/09 13:35:52;;;;;;;;;;;0.50;100.00;;;;;;5091062;28;19950;-75
2024/02/09 13:38:18;;;;;;;;;;;0.50;100.00;;;;;;5090416;28;20341;-76
2024/02/09 13:40:46;;;;;;;;;;;0.50;100.00;;;;;;5090341;28;19978;-76
2024/02/09 13:43:13;;;;;;;;;;;0.40;100.00;;;;;;5071850;28;20373;-76
2024/02/09 13:45:40;;;;;;;;;;;0.40;100.00;;;;;;5089653;28;19934;-76
2024/02/09 13:48:08;;;;;;;;;;;0.50;100.00;;;;;;5088967;28;19928;-77
2024/02/09 13:50:37;;;;;;;;;;;0.40;100.00;;;;;;5088272;28;19928;-76
2024/02/09 13:53:04;;;;;;;;;;;0.40;100.00;;;;;;5087378;28;20426;-76
2024/02/09 13:55:32;;;;;;;;;;;0.50;100.00;;;;;;5102481;28;19924;-76
2024/02/09 13:58:00;;;;;;;;;;;0.50;100.00;;;;;;5078273;28;19939;-77
2024/02/09 14:00:27;;;;;;;;;;;0.50;100.00;;;;;;5092744;28;19932;-77
2024/02/09 14:02:54;;;;;;;;;;;0.50;100.00;;;;;;5092594;28;19978;-77
2024/02/09 14:05:21;;;;;;;;;;;0.40;100.00;;;;;;5086675;28;19949;-76
2024/02/09 14:07:50;;;;;;;;;;;0.40;100.00;;;;;;5069583;28;19924;-76
2024/02/09 14:10:18;;;;;;;;;;;0.40;100.00;;;;;;5091768;28;19934;-76
2024/02/09 14:12:47;;;;;;;;;;;0.40;100.00;;;;;;5090631;28;20241;-76
2024/02/09 14:15:13;;;;;;;;;;;0.40;100.00;;;;;;5090714;28;19932;-76
2024/02/09 14:17:40;;;;;;;;;;;0.40;100.00;;;;;;5090181;28;19935;-75
2024/02/09 14:20:08;;;;;;;;;;;0.40;100.00;;;;;;5090909;28;19928;-75
2024/02/09 14:22:35;;;;;;;;;;;0.40;100.00;;;;;;5072800;28;19928;-75
2024/02/09 14:25:02;;;;;;;;;;;0.40;100.00;;;;;;5090685;28;19928;-77
2024/02/09 14:27:30;;;;;;;;;;;0.40;100.00;;;;;;5086898;28;19959;-77
2024/02/09 14:29:59;;;;;;;;;;;0.40;100.00;;;;;;5076187;28;20288;-77
2024/02/09 14:32:26;;;;;;;;;;;0.40;100.00;;;;;;5074976;28;19934;-76
2024/02/09 14:34:53;;;;;;;;;;;0.40;100.00;;;;;;5092457;28;19931;-76
2024/02/09 14:37:21;;;;;;;;;;;0.40;100.00;;;;;;5110024;27;20002;-76
2024/02/09 14:39:48;;;;;;;;;;;0.40;100.00;;;;;;5091316;28;19939;-76
2024/02/09 14:42:15;;;;;;;;;;;0.30;100.00;;;;;;5091210;28;19963;-76
2024/02/09 14:44:46;;;;;;;;;;;0.30;100.00;;;;;;5119891;27;19935;-77
2024/02/09 14:47:16;;;;;;;;;;;0.30;100.00;;;;;;5084352;28;19934;-77
2024/02/09 14:49:47;;;;;;;;;;;0.30;100.00;;;;;;5092712;28;20281;-77
2024/02/09 14:52:16;;;;;;;;;;;0.30;100.00;;;;;;5079137;28;19932;-77
2024/02/09 14:54:43;;;;;;;;;;;0.30;100.00;;;;;;5096576;28;19996;-77
2024/02/09 14:57:10;;;;;;;;;;;0.30;100.00;;;;;;5109686;28;19924;-77
2024/02/09 14:59:37;;;;;;;;;;;0.30;100.00;;;;;;5090559;28;19935;-77
2024/02/09 15:02:06;;;;;;;;;;;0.30;100.00;;;;;;5086811;28;19931;-77
2024/02/09 15:04:40;;;;;;;;;;;0.30;100.00;;;;;;5103871;28;19995;-77
2024/02/09 15:07:08;;;;;;;;;;;0.30;100.00;;;;;;5062988;28;19939;-76
2024/02/09 15:09:36;;;;;;;;;;;0.30;100.00;;;;;;5075540;28;20327;-76
2024/02/09 15:12:05;;;;;;;;;;;0.40;100.00;;;;;;5087068;28;19975;-76
2024/02/09 15:14:32;;;;;;;;;;;0.30;100.00;;;;;;5067197;28;20261;-77
2024/02/09 15:16:59;;;;;;;;;;;0.30;100.00;;;;;;5088483;28;20030;-77
2024/02/09 15:19:27;;;;;;;;;;;0.30;100.00;;;;;;5088486;28;19954;-77
2024/02/09 15:21:54;;;;;;;;;;;0.30;100.00;;;;;;5083285;28;19963;-77
2024/02/09 15:24:24;;;;;;;;;;;0.30;100.00;;;;;;5088737;28;20022;-76
2024/02/09 15:26:51;;;;;;;;;;;0.30;100.00;;;;;;5070307;28;19928;-77
2024/02/09 15:29:19;;;;;;;;;;;0.30;100.00;;;;;;5066862;28;19928;-77
2024/02/09 15:31:48;;;;;;;;;;;0.30;100.00;;;;;;5089510;28;19932;-77
2024/02/09 15:34:16;;;;;;;;;;;0.30;100.00;;;;;;5089126;28;19967;-77
2024/02/09 15:36:45;;;;;;;;;;;0.30;100.00;;;;;;5088261;28;19931;-76
2024/02/09 15:39:14;;;;;;;;;;;0.30;100.00;;;;;;5084869;28;19931;-76
2024/02/09 15:41:45;;;;;;;;;;;0.30;100.00;;;;;;5085588;28;19939;-76
2024/02/09 15:44:13;;;;;;;;;;;0.30;100.00;;;;;;5071569;28;19928;-76
2024/02/09 15:46:40;;;;;;;;;;;0.30;100.00;;;;;;5090060;28;19935;-76
2024/02/09 15:49:07;;;;;;;;;;;0.30;100.00;;;;;;5071115;28;19924;-75
2024/02/09 15:51:34;;;;;;;;;;;0.30;100.00;;;;;;5081833;28;20017;-75
2024/02/09 15:54:03;;;;;;;;;;;0.30;100.00;;;;;;5071852;28;19951;-75
2024/02/09 15:56:32;;;;;;;;;;;0.30;100.00;;;;;;5097982;28;19928;-75
2024/02/09 15:59:00;;;;;;;;;;;0.30;100.00;;;;;;5088259;28;19928;-75
2024/02/09 16:01:33;;;;;;;;;;;0.30;100.00;;;;;;5097031;28;19955;-75
2024/02/09 16:04:00;;;;;;;;;;;0.30;100.00;;;;;;5074759;28;19928;-75
2024/02/09 16:06:27;;;;;;;;;;;0.30;100.00;;;;;;5098519;28;19927;-75
2024/02/09 16:08:54;;;;;;;;;;;0.30;100.00;;;;;;5081446;28;20323;-75
2024/02/09 16:11:22;;;;;;;;;;;0.30;100.00;;;;;;5088108;28;19936;-75